createdAt,value
2023-04-16T00:03:35.052Z,7.75
2023-04-16T00:09:05.597Z,8.90
2023-04-16T00:14:29.141Z,7.90
2023-04-16T00:19:55.485Z,8.38
2023-04-16T00:25:20.563Z,7.40
2023-04-16T00:30:44.168Z,7.70
2023-04-16T00:36:07.591Z,8.18
2023-04-16T00:41:33.738Z,7.25
2023-04-16T00:46:58.613Z,5.53
2023-04-16T00:52:23.111Z,5.93
2023-04-16T00:57:49.081Z,4.95
2023-04-16T01:03:12.369Z,6.40
2023-04-16T01:08:36.645Z,5.65
2023-04-16T01:14:01.914Z,6.60
2023-04-16T01:19:26.044Z,7.13
2023-04-16T01:24:51.901Z,6.82
2023-04-16T01:30:16.691Z,6.07
2023-04-16T01:35:54.330Z,5.50
2023-04-16T01:41:20.028Z,5.40
2023-04-16T01:46:43.855Z,5.15
2023-04-16T01:52:08.535Z,4.57
2023-04-16T01:57:32.388Z,4.65
2023-04-16T02:02:55.072Z,5.15
2023-04-16T02:08:23.299Z,5.03
2023-04-16T02:13:47.623Z,5.20
2023-04-16T02:19:11.947Z,5.68
2023-04-16T02:24:36.014Z,5.70
2023-04-16T02:30:04.525Z,5.95
2023-04-16T02:35:29.906Z,5.68
2023-04-16T02:40:52.754Z,5.55
2023-04-16T02:46:16.820Z,6.47
2023-04-16T02:51:40.838Z,5.57
2023-04-16T02:57:06.142Z,5.90
2023-04-16T03:02:31.939Z,6.00
2023-04-16T03:07:56.760Z,6.30
2023-04-16T03:13:21.398Z,5.38
2023-04-16T03:18:46.654Z,5.65
2023-04-16T03:24:11.489Z,5.82
2023-04-16T03:29:37.820Z,5.43
2023-04-16T03:35:05.996Z,6.15
2023-04-16T03:40:32.020Z,5.57
2023-04-16T03:45:57.242Z,5.97
2023-04-16T03:51:24.906Z,5.28
2023-04-16T03:56:49.670Z,6.25
2023-04-16T04:02:14.460Z,5.63
2023-04-16T04:07:41.277Z,5.43
2023-04-16T04:13:06.688Z,5.68
2023-04-16T04:18:32.524Z,5.78
2023-04-16T04:23:58.597Z,5.70
2023-04-16T04:29:23.248Z,5.10
2023-04-16T04:34:47.640Z,5.65
2023-04-16T04:40:14.221Z,5.20
2023-04-16T04:45:38.532Z,5.30
2023-04-16T04:51:05.249Z,4.80
2023-04-16T04:56:31.620Z,5.45
2023-04-16T05:01:55.907Z,5.50
2023-04-16T05:07:20.023Z,4.90
2023-04-16T05:12:46.290Z,4.88
2023-04-16T05:18:11.822Z,5.80
2023-04-16T05:23:35.952Z,4.63
2023-04-16T05:29:02.708Z,5.32
2023-04-16T05:34:26.665Z,4.82
2023-04-16T05:39:51.184Z,4.82
2023-04-16T05:45:17.023Z,4.57
2023-04-16T05:50:40.768Z,4.10
2023-04-16T05:56:04.658Z,4.55
2023-04-16T06:01:30.263Z,4.35
2023-04-16T06:06:53.838Z,4.00
2023-04-16T06:12:20.293Z,3.97
2023-04-16T06:17:45.319Z,2.97
2023-04-16T06:23:10.004Z,3.95
2023-04-16T06:28:34.221Z,3.33
2023-04-16T06:33:59.049Z,4.32
2023-04-16T06:39:23.193Z,2.95
2023-04-16T06:44:47.846Z,3.85
2023-04-16T06:50:13.837Z,3.85
2023-04-16T06:55:38.754Z,3.53
2023-04-16T07:01:03.411Z,2.85
2023-04-16T07:06:28.833Z,2.83
2023-04-16T07:11:53.087Z,2.90
2023-04-16T07:17:17.188Z,2.58
2023-04-16T07:22:43.491Z,2.50
2023-04-16T07:28:07.492Z,2.60
2023-04-16T07:33:33.026Z,2.60
2023-04-16T07:38:58.555Z,2.60
2023-04-16T07:44:22.750Z,2.53
2023-04-16T07:49:46.878Z,2.35
2023-04-16T07:55:12.594Z,2.42
2023-04-16T08:00:36.863Z,1.88
2023-04-16T08:06:00.884Z,2.08
2023-04-16T08:11:27.634Z,2.30
2023-04-16T08:16:51.645Z,2.20
2023-04-16T08:22:16.130Z,1.70
2023-04-16T08:27:42.971Z,1.80
2023-04-16T08:33:08.880Z,2.20
2023-04-16T08:38:33.204Z,1.70
2023-04-16T08:44:01.234Z,1.80
2023-04-16T08:49:25.849Z,1.83
2023-04-16T08:54:58.387Z,1.73
2023-04-16T09:00:24.894Z,1.92
2023-04-16T09:05:49.012Z,1.98
2023-04-16T09:11:14.509Z,2.10
2023-04-16T09:16:40.997Z,2.33
2023-04-16T09:22:04.983Z,2.65
2023-04-16T09:27:28.435Z,3.00
2023-04-16T09:32:54.014Z,2.03
2023-04-16T09:38:18.815Z,2.47
2023-04-16T09:43:42.527Z,2.15
2023-04-16T09:49:10.057Z,1.60
2023-04-16T09:54:34.224Z,2.10
2023-04-16T10:00:02.918Z,2.78
2023-04-16T10:10:55.311Z,1.60
2023-04-16T10:16:20.095Z,1.52
2023-04-16T10:21:44.199Z,1.65
2023-04-16T10:27:09.696Z,1.50
2023-04-16T10:32:34.311Z,1.55
2023-04-16T10:37:58.608Z,1.63
2023-04-16T10:43:26.360Z,1.80
2023-04-16T10:48:52.020Z,2.15
2023-04-16T10:54:21.227Z,1.90
2023-04-16T10:59:47.141Z,2.13
2023-04-16T11:05:13.765Z,2.00
2023-04-16T11:10:40.281Z,1.60
2023-04-16T11:16:06.198Z,1.42
2023-04-16T11:21:31.836Z,1.35
2023-04-16T11:26:56.635Z,1.20
2023-04-16T11:32:25.260Z,2.67
2023-04-16T11:37:49.420Z,1.38
2023-04-16T11:43:15.402Z,1.90
2023-04-16T11:48:57.093Z,1.60
2023-04-16T11:54:23.248Z,2.08
2023-04-16T12:00:01.672Z,2.40
2023-04-16T12:05:38.899Z,1.40
2023-04-16T12:11:04.342Z,1.35
2023-04-16T12:16:28.744Z,2.05
2023-04-16T12:21:54.915Z,1.92
2023-04-16T12:27:22.852Z,1.95
2023-04-16T12:32:50.149Z,1.45
2023-04-16T12:38:15.296Z,1.77
2023-04-16T12:43:41.762Z,1.85
2023-04-16T12:49:06.674Z,1.92
2023-04-16T12:54:31.357Z,1.90
2023-04-16T12:59:57.469Z,1.65
2023-04-16T13:05:23.326Z,1.55
2023-04-16T13:10:48.107Z,1.85
2023-04-16T13:16:13.545Z,1.88
2023-04-16T13:21:38.259Z,1.40
2023-04-16T13:27:02.373Z,1.67
2023-04-16T13:32:27.700Z,1.92
2023-04-16T13:37:52.335Z,1.90
2023-04-16T13:43:18.946Z,1.40
2023-04-16T13:48:46.178Z,1.65
2023-04-16T13:54:11.054Z,1.92
2023-04-16T13:59:37.968Z,2.20
2023-04-16T14:05:03.455Z,1.55
2023-04-16T14:10:28.171Z,1.50
2023-04-16T14:15:54.347Z,1.80
2023-04-16T14:21:21.707Z,2.17
2023-04-16T14:26:47.577Z,2.03
2023-04-16T14:32:12.080Z,2.13
2023-04-16T14:37:38.499Z,1.90
2023-04-16T14:43:02.582Z,2.17
2023-04-16T14:48:26.688Z,2.53
2023-04-16T14:53:52.115Z,1.70
2023-04-16T14:59:19.399Z,2.10
2023-04-16T15:04:43.774Z,2.13
2023-04-16T15:10:10.781Z,1.98
2023-04-16T15:15:35.079Z,2.50
2023-04-16T15:20:58.570Z,1.70
2023-04-16T15:26:24.159Z,2.20
2023-04-16T15:31:48.925Z,2.45
2023-04-16T15:37:13.080Z,2.30
2023-04-16T15:42:40.031Z,2.00
2023-04-16T15:48:05.467Z,4.40
2023-04-16T15:53:29.796Z,2.22
2023-04-16T15:58:56.967Z,2.33
2023-04-16T16:04:22.980Z,2.55
2023-04-16T16:09:48.066Z,2.47
2023-04-16T16:15:14.636Z,2.80
2023-04-16T16:20:40.525Z,2.45
2023-04-16T16:26:06.348Z,2.00
2023-04-16T16:31:31.694Z,2.85
2023-04-16T16:36:57.228Z,2.15
2023-04-16T16:42:22.952Z,2.45
2023-04-16T16:47:48.840Z,2.30
2023-04-16T16:53:12.784Z,1.90
2023-04-16T16:58:36.882Z,1.70
2023-04-16T17:04:02.985Z,3.13
2023-04-16T17:09:28.321Z,2.45
2023-04-16T17:14:55.901Z,1.52
2023-04-16T17:20:21.571Z,2.03
2023-04-16T17:25:45.451Z,1.70
2023-04-16T17:31:11.348Z,2.10
2023-04-16T17:36:37.021Z,1.92
2023-04-16T17:42:03.036Z,2.45
2023-04-16T17:47:28.683Z,2.47
2023-04-16T17:52:53.864Z,1.65
2023-04-16T17:58:17.532Z,2.50
2023-04-16T18:03:42.108Z,1.63
2023-04-16T18:09:08.853Z,1.85
2023-04-16T18:14:32.633Z,1.98
2023-04-16T18:19:57.526Z,1.70
2023-04-16T18:25:32.290Z,1.70
2023-04-16T18:31:04.950Z,1.92
2023-04-16T18:36:28.922Z,1.50
2023-04-16T18:41:54.442Z,1.88
2023-04-16T18:47:18.197Z,1.92
2023-04-16T18:52:41.986Z,2.00
2023-04-16T18:58:07.527Z,2.25
2023-04-16T19:03:33.480Z,1.90
2023-04-16T19:08:57.033Z,2.10
2023-04-16T19:14:23.031Z,3.33
2023-04-16T19:19:47.677Z,2.45
2023-04-16T19:25:11.473Z,2.22
2023-04-16T19:30:36.390Z,2.58
2023-04-16T19:36:00.303Z,2.45
2023-04-16T19:41:24.034Z,2.65
2023-04-16T19:46:49.191Z,1.65
2023-04-16T19:52:12.720Z,1.77
2023-04-16T19:57:36.590Z,1.80
2023-04-16T20:03:01.592Z,1.80
2023-04-16T20:08:25.167Z,2.35
2023-04-16T20:13:49.358Z,1.77
2023-04-16T20:19:17.107Z,1.60
2023-04-16T20:24:40.859Z,1.75
2023-04-16T20:30:06.199Z,1.77
2023-04-16T20:35:31.142Z,2.03
2023-04-16T20:41:06.202Z,1.77
2023-04-16T20:46:30.105Z,1.55
2023-04-16T20:51:55.453Z,1.70
2023-04-16T20:57:19.932Z,2.00
2023-04-16T21:02:44.587Z,1.90
2023-04-16T21:08:09.895Z,1.70
2023-04-16T21:13:33.937Z,2.05
2023-04-16T21:18:58.180Z,1.90
2023-04-16T21:24:25.084Z,1.77
2023-04-16T21:29:49.234Z,1.73
2023-04-16T21:35:14.885Z,1.38
2023-04-16T21:40:40.732Z,1.85
2023-04-16T21:46:07.816Z,1.35
2023-04-16T21:51:30.922Z,1.60
2023-04-16T21:56:57.053Z,1.65
2023-04-16T22:02:24.277Z,1.48
2023-04-16T22:07:53.405Z,1.33
2023-04-16T22:13:19.538Z,1.50
2023-04-16T22:18:43.865Z,2.45
2023-04-16T22:24:09.752Z,1.80
2023-04-16T22:29:35.393Z,1.33
2023-04-16T22:35:00.757Z,1.80
2023-04-16T22:40:24.999Z,1.73
2023-04-16T22:45:50.892Z,1.67
2023-04-16T22:51:16.275Z,1.90
2023-04-16T22:56:40.251Z,1.73
2023-04-16T23:02:06.431Z,1.88
2023-04-16T23:07:30.712Z,2.38
2023-04-16T23:12:55.244Z,2.15
2023-04-16T23:18:20.859Z,2.10
2023-04-16T23:23:45.364Z,2.42
2023-04-16T23:29:10.053Z,2.20
2023-04-16T23:34:36.793Z,2.40
2023-04-16T23:40:01.051Z,2.35
2023-04-16T23:45:24.731Z,2.80
2023-04-16T23:50:50.545Z,2.60
2023-04-16T23:56:15.465Z,2.60
